Time;durP1;ratioP1;P1;durP2;ratioP2;P2;SDS_P1;SDS_P2;PMS_P1;PMS_P2;Temp;Humidity;BMP_temperature;BMP_pressure;BME280_temperature;BME280_humidity;BME280_pressure;Samples;Min_cycle;Max_cycle;Signal;HPM_P1;HPM_P2
2023/07/22 00:00:05;;;;;;;15.38;6.63;;;13.40;92.80;;;;;;5032933;28;20032;-52
2023/07/22 00:02:32;;;;;;;10.07;6.57;;;13.40;93.00;;;;;;5041157;28;20502;-48
2023/07/22 00:04:58;;;;;;;11.15;6.53;;;13.50;93.10;;;;;;5033014;28;20029;-50
2023/07/22 00:07:25;;;;;;;11.73;7.15;;;13.40;92.80;;;;;;5040596;28;20028;-47
2023/07/22 00:09:52;;;;;;;9.88;6.88;;;13.40;92.80;;;;;;5032929;28;20124;-48
2023/07/22 00:12:19;;;;;;;11.25;6.55;;;13.40;92.90;;;;;;5039530;28;20029;-49
2023/07/22 00:14:49;;;;;;;20.30;7.50;;;13.40;92.70;;;;;;5032831;28;20045;-47
2023/07/22 00:17:18;;;;;;;10.63;6.80;;;13.40;92.70;;;;;;5031158;28;20040;-47
2023/07/22 00:19:45;;;;;;;11.07;5.35;;;13.40;92.80;;;;;;5031965;28;20040;-46
2023/07/22 00:22:12;;;;;;;8.65;5.15;;;13.40;92.70;;;;;;5031335;28;20112;-46
2023/07/22 00:24:39;;;;;;;10.27;6.10;;;13.30;92.70;;;;;;5046400;28;20339;-46
2023/07/22 00:27:08;;;;;;;10.82;5.57;;;13.30;92.90;;;;;;5031197;28;20483;-46
2023/07/22 00:29:35;;;;;;;11.52;5.45;;;13.30;92.80;;;;;;5030834;28;20040;-46
2023/07/22 00:32:05;;;;;;;7.38;5.65;;;13.30;92.70;;;;;;5033654;28;20295;-47
2023/07/22 00:34:33;;;;;;;10.93;5.70;;;13.20;92.80;;;;;;5042556;28;20029;-47
2023/07/22 00:37:02;;;;;;;9.50;6.10;;;13.20;92.70;;;;;;5019306;28;20062;-48
2023/07/22 00:39:29;;;;;;;11.50;6.70;;;13.20;92.80;;;;;;5034866;28;20446;-46
2023/07/22 00:41:56;;;;;;;9.55;6.82;;;13.20;92.70;;;;;;5038799;28;20028;-46
2023/07/22 00:44:21;;;;;;;10.80;7.10;;;13.20;93.00;;;;;;5032098;28;20410;-46
2023/07/22 00:46:48;;;;;;;10.63;7.30;;;13.30;92.90;;;;;;5042761;28;20058;-47
2023/07/22 00:49:19;;;;;;;11.45;6.72;;;13.30;93.10;;;;;;5050184;28;20077;-47
2023/07/22 00:51:45;;;;;;;16.60;6.72;;;13.20;93.00;;;;;;5034431;28;20091;-46
2023/07/22 00:54:10;;;;;;;11.00;7.20;;;13.20;92.90;;;;;;5037664;28;20510;-48
2023/07/22 00:56:40;;;;;;;12.95;6.38;;;13.20;92.80;;;;;;5040377;28;20036;-47
2023/07/22 00:59:07;;;;;;;11.80;7.40;;;13.10;92.90;;;;;;5030202;28;20025;-47
2023/07/22 01:01:33;;;;;;;10.50;6.03;;;13.20;93.00;;;;;;5036803;28;20093;-46
2023/07/22 01:04:01;;;;;;;13.00;6.40;;;13.20;93.10;;;;;;5049102;28;20411;-53
2023/07/22 01:06:30;;;;;;;14.55;6.78;;;13.20;92.90;;;;;;5049951;28;20021;-52
2023/07/22 01:08:59;;;;;;;13.60;6.63;;;13.20;93.10;;;;;;5043510;28;20045;-48
2023/07/22 01:11:27;;;;;;;11.32;6.63;;;13.20;93.00;;;;;;5032333;28;20057;-49
2023/07/22 01:13:59;;;;;;;12.95;6.95;;;13.20;93.00;;;;;;5031925;28;20039;-47
2023/07/22 01:16:28;;;;;;;9.93;7.28;;;13.20;93.10;;;;;;5033580;28;20442;-47
2023/07/22 01:18:56;;;;;;;13.57;6.22;;;13.10;93.10;;;;;;5032768;28;20061;-47
2023/07/22 01:21:26;;;;;;;11.18;7.30;;;13.10;93.10;;;;;;5051942;28;20401;-48
2023/07/22 01:23:54;;;;;;;10.48;6.20;;;13.10;93.10;;;;;;5044038;28;20367;-49
2023/07/22 01:26:21;;;;;;;13.95;7.07;;;13.20;93.20;;;;;;5031992;28;20033;-48
2023/07/22 01:28:48;;;;;;;9.82;6.18;;;13.10;93.10;;;;;;5031690;28;20021;-47
2023/07/22 01:31:15;;;;;;;9.20;5.88;;;13.20;93.30;;;;;;5032266;28;20650;-47
2023/07/22 01:33:42;;;;;;;12.02;6.93;;;13.10;93.20;;;;;;5030501;28;20087;-47
2023/07/22 01:36:09;;;;;;;13.15;6.25;;;13.10;93.10;;;;;;5032063;28;20033;-47
2023/07/22 01:38:36;;;;;;;10.15;5.95;;;13.10;93.00;;;;;;5035670;28;20339;-49
2023/07/22 01:41:05;;;;;;;13.23;6.50;;;13.10;93.00;;;;;;5032111;28;20473;-47
2023/07/22 01:43:32;;;;;;;9.75;6.00;;;13.00;92.90;;;;;;5032024;28;20088;-46
2023/07/22 01:46:01;;;;;;;13.48;6.30;;;13.00;93.00;;;;;;5031736;28;20029;-47
2023/07/22 01:48:28;;;;;;;15.43;7.18;;;13.00;93.20;;;;;;5031767;28;20116;-47
2023/07/22 01:50:55;;;;;;;12.63;6.40;;;13.00;93.20;;;;;;5031842;28;20041;-49
2023/07/22 01:53:20;;;;;;;14.48;6.75;;;13.00;93.40;;;;;;5031623;28;20026;-48
2023/07/22 01:55:46;;;;;;;11.65;6.60;;;13.10;93.20;;;;;;5034720;28;20021;-48
2023/07/22 01:58:13;;;;;;;11.52;7.45;;;13.00;93.20;;;;;;5031695;28;20030;-48
2023/07/22 02:00:40;;;;;;;11.25;7.05;;;13.00;93.20;;;;;;5033005;28;20028;-46
2023/07/22 02:03:07;;;;;;;12.05;6.70;;;13.00;93.20;;;;;;5022483;28;20072;-48
2023/07/22 02:05:35;;;;;;;13.77;6.65;;;13.10;93.20;;;;;;5031961;28;20045;-46
2023/07/22 02:08:02;;;;;;;10.75;6.55;;;13.00;93.30;;;;;;5031699;28;20029;-46
2023/07/22 02:10:30;;;;;;;7.70;5.40;;;13.10;93.30;;;;;;5041326;28;20474;-48
2023/07/22 02:12:59;;;;;;;10.55;6.00;;;13.00;93.20;;;;;;5046820;28;20037;-46
2023/07/22 02:15:28;;;;;;;12.27;7.43;;;13.00;93.20;;;;;;5038026;28;20087;-46
2023/07/22 02:17:57;;;;;;;14.60;6.53;;;13.00;93.00;;;;;;5053568;28;20284;-46
2023/07/22 02:20:26;;;;;;;10.07;6.23;;;13.00;93.10;;;;;;5050517;28;20045;-46
2023/07/22 02:22:52;;;;;;;11.70;6.00;;;12.90;93.10;;;;;;5054787;28;20044;-47
2023/07/22 02:25:22;;;;;;;10.38;5.43;;;13.00;93.20;;;;;;5049749;28;20029;-46
2023/07/22 02:27:49;;;;;;;11.20;6.10;;;13.00;93.10;;;;;;5053441;28;20120;-46
2023/07/22 02:30:16;;;;;;;9.10;6.20;;;12.90;93.00;;;;;;5050346;28;20539;-46
2023/07/22 02:32:42;;;;;;;9.05;5.20;;;12.90;93.00;;;;;;5053713;28;20044;-46
2023/07/22 02:35:10;;;;;;;8.57;5.47;;;12.90;93.00;;;;;;5054924;28;20032;-46
2023/07/22 02:37:38;;;;;;;9.50;5.38;;;12.90;93.10;;;;;;5049350;28;20037;-49
2023/07/22 02:40:11;;;;;;;13.02;5.72;;;12.90;93.00;;;;;;5037544;28;20033;-47
2023/07/22 02:42:37;;;;;;;11.65;5.22;;;12.90;93.00;;;;;;5033826;28;20168;-47
2023/07/22 02:45:04;;;;;;;9.85;5.40;;;12.80;92.90;;;;;;5046427;28;20116;-47
2023/07/22 02:47:32;;;;;;;11.23;4.93;;;12.80;92.80;;;;;;5053261;28;20374;-46
2023/07/22 02:49:58;;;;;;;10.63;5.25;;;12.70;92.80;;;;;;5041372;28;20991;-47
2023/07/22 02:52:25;;;;;;;9.15;5.57;;;12.70;92.70;;;;;;5054498;28;20104;-48
2023/07/22 02:55:16;;;;;;;8.82;5.53;;;12.70;92.80;;;;;;5047155;28;20025;-46
2023/07/22 02:57:42;;;;;;;11.32;4.72;;;12.60;92.70;;;;;;5038449;28;20065;-46
2023/07/22 03:00:12;;;;;;;9.45;5.05;;;12.60;92.60;;;;;;5036016;28;20021;-47
2023/07/22 03:02:39;;;;;;;;;;;12.50;92.60;;;;;;5051616;28;20040;-47
2023/07/22 03:05:08;;;;;;;6.82;5.13;;;12.50;92.50;;;;;;5053217;28;20361;-46
2023/07/22 03:07:37;;;;;;;7.40;4.57;;;12.50;92.50;;;;;;5053329;28;20060;-46
2023/07/22 03:10:06;;;;;;;11.73;4.70;;;12.40;92.30;;;;;;5045500;28;20505;-46
2023/07/22 03:12:33;;;;;;;9.57;4.50;;;12.40;92.40;;;;;;5034562;28;20069;-49
2023/07/22 03:15:00;;;;;;;6.88;4.60;;;12.40;92.40;;;;;;5034560;28;20017;-48
2023/07/22 03:17:29;;;;;;;7.47;4.80;;;12.30;92.30;;;;;;5050072;28;20092;-46
2023/07/22 03:19:56;;;;;;;7.72;4.68;;;12.40;92.50;;;;;;5033719;28;20044;-46
2023/07/22 03:22:23;;;;;;;10.20;4.65;;;12.30;92.40;;;;;;5034084;28;20033;-47
2023/07/22 03:24:49;;;;;;;6.13;3.33;;;12.30;92.40;;;;;;5036192;28;20032;-47
2023/07/22 03:27:19;;;;;;;7.82;3.88;;;12.30;92.30;;;;;;5033930;28;20029;-46
2023/07/22 03:29:48;;;;;;;9.07;4.07;;;12.20;92.30;;;;;;5034753;28;20040;-47
2023/07/22 03:32:15;;;;;;;7.50;3.53;;;12.30;92.30;;;;;;5040556;28;20034;-46
2023/07/22 03:34:41;;;;;;;7.10;3.90;;;12.20;92.20;;;;;;5053008;28;20262;-46
2023/07/22 03:37:09;;;;;;;7.53;4.13;;;12.20;92.20;;;;;;5037132;28;20083;-47
2023/07/22 03:39:36;;;;;;;8.00;3.83;;;12.10;92.10;;;;;;5040867;28;20040;-47
2023/07/22 03:42:05;;;;;;;6.70;3.80;;;12.10;92.10;;;;;;5036130;28;20390;-49
2023/07/22 03:44:31;;;;;;;8.10;4.00;;;12.10;92.10;;;;;;5039052;28;20021;-48
2023/07/22 03:46:57;;;;;;;9.75;4.32;;;12.10;92.00;;;;;;5049551;28;20029;-47
2023/07/22 03:49:24;;;;;;;9.52;4.57;;;12.10;91.80;;;;;;5041648;28;20086;-47
2023/07/22 03:51:51;;;;;;;6.22;3.92;;;12.00;91.60;;;;;;5053010;28;20052;-47
2023/07/22 03:54:18;;;;;;;6.45;4.47;;;12.00;91.80;;;;;;5038044;28;20021;-46
2023/07/22 03:56:43;;;;;;;8.50;4.70;;;12.00;91.70;;;;;;5033853;28;20496;-46
2023/07/22 03:59:10;;;;;;;7.30;4.00;;;12.00;91.70;;;;;;5036347;28;20634;-48
2023/07/22 04:01:37;;;;;;;6.90;3.33;;;12.00;91.70;;;;;;5043389;28;20094;-48
2023/07/22 04:04:04;;;;;;;11.00;4.22;;;12.00;91.70;;;;;;5053083;28;20033;-46
2023/07/22 04:06:30;;;;;;;7.13;3.78;;;11.90;91.60;;;;;;5049770;28;20064;-48
2023/07/22 04:08:56;;;;;;;8.85;3.78;;;11.90;91.70;;;;;;5053124;28;20084;-46
2023/07/22 04:11:28;;;;;;;6.45;3.45;;;11.90;91.60;;;;;;5044180;28;20227;-47
2023/07/22 04:13:55;;;;;;;7.90;4.05;;;11.90;91.70;;;;;;5042919;28;20026;-46
2023/07/22 04:16:21;;;;;;;6.80;3.63;;;11.90;91.70;;;;;;5034070;28;20037;-46
2023/07/22 04:18:48;;;;;;;12.02;3.80;;;11.90;91.80;;;;;;5033111;28;20022;-46
2023/07/22 04:21:13;;;;;;;6.47;4.05;;;11.90;91.80;;;;;;5032003;28;20148;-46
2023/07/22 04:23:42;;;;;;;8.23;4.32;;;11.90;91.80;;;;;;5033140;28;20104;-46
2023/07/22 04:26:10;;;;;;;7.32;3.75;;;11.90;91.90;;;;;;5046952;28;20032;-47
2023/07/22 04:28:36;;;;;;;7.38;3.70;;;11.90;91.90;;;;;;5034925;28;20056;-46
2023/07/22 04:31:04;;;;;;;11.02;4.22;;;11.90;91.90;;;;;;5044272;28;20068;-47
2023/07/22 04:33:30;;;;;;;7.50;3.67;;;11.90;91.90;;;;;;5032458;28;20026;-49
2023/07/22 04:35:59;;;;;;;5.20;3.53;;;11.90;92.00;;;;;;5032229;28;20021;-48
2023/07/22 04:38:26;;;;;;;8.88;4.68;;;12.00;91.90;;;;;;5032599;28;20032;-46
2023/07/22 04:40:53;;;;;;;8.18;3.47;;;12.00;91.90;;;;;;5033401;28;20494;-47
2023/07/22 04:43:22;;;;;;;5.95;3.47;;;12.10;92.10;;;;;;5034019;28;20021;-46
2023/07/22 04:45:50;;;;;;;7.70;3.50;;;12.10;92.10;;;;;;5032803;28;20029;-48
2023/07/22 04:48:22;;;;;;;7.63;3.45;;;12.20;92.10;;;;;;5032576;28;20060;-46
2023/07/22 04:50:49;;;;;;;8.20;3.78;;;12.20;92.10;;;;;;5031790;28;20037;-47
2023/07/22 04:53:17;;;;;;;5.45;3.47;;;12.30;92.20;;;;;;5045098;28;20029;-46
2023/07/22 04:55:47;;;;;;;7.70;3.45;;;12.40;92.20;;;;;;5050137;28;20052;-46
2023/07/22 04:58:14;;;;;;;7.13;3.50;;;12.40;92.30;;;;;;5047385;28;20017;-48
2023/07/22 05:00:43;;;;;;;8.00;3.60;;;12.50;92.30;;;;;;5048400;28;20033;-46
2023/07/22 05:03:09;;;;;;;6.00;3.00;;;12.60;92.30;;;;;;5048950;28;20446;-46
2023/07/22 05:05:38;;;;;;;8.90;3.80;;;12.60;92.30;;;;;;5040715;28;20041;-46
2023/07/22 05:08:09;;;;;;;5.20;3.20;;;12.70;92.40;;;;;;5032572;28;20048;-47
2023/07/22 05:10:37;;;;;;;5.43;2.92;;;12.70;92.50;;;;;;5035264;28;20049;-46
2023/07/22 05:13:05;;;;;;;21.05;3.60;;;12.80;92.40;;;;;;5044948;28;20112;-46
2023/07/22 05:15:32;;;;;;;6.85;4.00;;;12.80;92.40;;;;;;5030295;28;20419;-46
2023/07/22 05:17:59;;;;;;;7.93;4.03;;;12.90;92.60;;;;;;5035551;28;20033;-46
2023/07/22 05:20:26;;;;;;;4.93;3.03;;;12.90;92.60;;;;;;5044357;28;20036;-47
2023/07/22 05:22:54;;;;;;;6.90;3.05;;;13.00;92.70;;;;;;5050152;28;20020;-47
2023/07/22 05:25:21;;;;;;;5.50;2.88;;;13.10;92.60;;;;;;5049460;28;20361;-46
2023/07/22 05:27:47;;;;;;;5.53;3.15;;;13.20;92.60;;;;;;5031894;28;20041;-46
2023/07/22 05:30:13;;;;;;;4.82;3.13;;;13.30;92.50;;;;;;5045234;28;20040;-46
2023/07/22 05:32:42;;;;;;;3.92;2.65;;;13.30;92.50;;;;;;5035543;28;20162;-47
2023/07/22 05:35:09;;;;;;;7.95;3.25;;;13.40;92.40;;;;;;5040541;28;20025;-51
2023/07/22 05:37:36;;;;;;;4.38;2.80;;;13.40;92.40;;;;;;5024850;28;20041;-48
2023/07/22 05:40:07;;;;;;;5.35;3.10;;;13.50;92.40;;;;;;5037740;28;20034;-46
2023/07/22 05:42:36;;;;;;;5.32;2.58;;;13.50;92.30;;;;;;5030940;28;20037;-46
2023/07/22 05:45:03;;;;;;;4.80;2.35;;;13.60;92.30;;;;;;5034554;28;20125;-47
2023/07/22 05:47:30;;;;;;;6.82;2.17;;;13.60;92.30;;;;;;5048805;28;20052;-48
2023/07/22 05:49:57;;;;;;;4.55;2.17;;;13.60;92.20;;;;;;5050164;28;20043;-47
2023/07/22 05:52:24;;;;;;;5.47;3.08;;;13.70;92.20;;;;;;5048624;28;20087;-46
2023/07/22 05:54:51;;;;;;;7.25;2.65;;;13.80;92.10;;;;;;5034458;28;20022;-47
2023/07/22 05:57:20;;;;;;;6.47;2.50;;;14.00;92.40;;;;;;5039267;28;20346;-46
2023/07/22 05:59:47;;;;;;;6.03;2.88;;;14.20;92.50;;;;;;5034130;28;20048;-47
2023/07/22 06:02:14;;;;;;;5.15;2.42;;;14.40;92.20;;;;;;5049167;28;20041;-49
2023/07/22 06:04:41;;;;;;;6.72;3.10;;;14.50;91.80;;;;;;5054820;28;20029;-47
2023/07/22 06:07:08;;;;;;;4.88;2.50;;;14.50;91.70;;;;;;5051140;28;20028;-46
2023/07/22 06:09:35;;;;;;;5.63;3.35;;;14.60;91.10;;;;;;5049593;28;20033;-48
2023/07/22 06:12:02;;;;;;;7.45;3.08;;;14.70;91.00;;;;;;5042256;28;20079;-47
2023/07/22 06:14:28;;;;;;;6.75;3.42;;;14.70;90.40;;;;;;5036929;28;20120;-47
2023/07/22 06:16:55;;;;;;;6.43;2.75;;;14.70;90.10;;;;;;5034206;28;20061;-48
2023/07/22 06:19:23;;;;;;;5.32;2.95;;;14.70;89.70;;;;;;5042303;28;20103;-47
2023/07/22 06:21:50;;;;;;;6.63;2.88;;;14.80;90.00;;;;;;5039969;28;20048;-47
2023/07/22 06:24:18;;;;;;;7.32;2.33;;;14.80;90.10;;;;;;5042590;28;20040;-47
2023/07/22 06:26:46;;;;;;;8.85;3.00;;;15.00;90.10;;;;;;5037076;28;20033;-46
2023/07/22 06:29:12;;;;;;;4.43;2.58;;;14.90;89.20;;;;;;5034897;28;20100;-48
2023/07/22 06:31:39;;;;;;;6.30;1.98;;;15.00;88.90;;;;;;5040637;28;20032;-48
2023/07/22 06:34:06;;;;;;;5.97;1.90;;;15.00;88.90;;;;;;5039183;28;20028;-49
2023/07/22 06:36:33;;;;;;;5.18;2.50;;;15.00;88.60;;;;;;5042645;28;20107;-47
2023/07/22 06:39:00;;;;;;;4.97;2.38;;;14.90;87.90;;;;;;5050577;28;20025;-47
2023/07/22 06:41:27;;;;;;;7.63;2.72;;;14.90;88.30;;;;;;5045474;28;20041;-47
2023/07/22 06:43:55;;;;;;;6.15;3.13;;;14.90;88.70;;;;;;5040538;28;20033;-47
2023/07/22 06:46:22;;;;;;;8.15;3.08;;;15.10;89.30;;;;;;5040613;28;20472;-46
2023/07/22 06:48:51;;;;;;;8.38;3.85;;;15.20;89.40;;;;;;5045318;28;20045;-46
2023/07/22 06:51:28;;;;;;;5.63;2.65;;;15.20;89.00;;;;;;5042580;28;20048;-47
2023/07/22 06:53:54;;;;;;;4.70;2.47;;;15.30;88.60;;;;;;5042491;28;20033;-49
2023/07/22 06:56:21;;;;;;;7.30;2.67;;;15.30;88.20;;;;;;5038677;28;20021;-47
2023/07/22 06:58:48;;;;;;;4.75;2.25;;;15.20;88.00;;;;;;5041184;28;20022;-47
2023/07/22 07:01:15;;;;;;;6.20;2.55;;;15.40;88.00;;;;;;5041989;28;20111;-47
2023/07/22 07:03:44;;;;;;;5.05;1.83;;;15.50;88.10;;;;;;5040441;28;20048;-47
2023/07/22 07:06:11;;;;;;;6.22;2.70;;;15.60;88.30;;;;;;5042724;28;20029;-47
2023/07/22 07:08:37;;;;;;;3.88;2.05;;;15.70;87.50;;;;;;5039937;28;20041;-47
2023/07/22 07:11:04;;;;;;;5.05;2.65;;;15.70;87.60;;;;;;5045422;28;20377;-46
2023/07/22 07:13:34;;;;;;;3.25;1.60;;;15.80;87.00;;;;;;5035576;28;20463;-47
2023/07/22 07:16:21;;;;;;;4.57;1.70;;;15.90;86.50;;;;;;5039432;28;20032;-49
2023/07/22 07:18:49;;;;;;;3.72;1.83;;;16.00;86.60;;;;;;5043337;28;20029;-49
2023/07/22 07:21:15;;;;;;;6.05;2.13;;;16.20;86.20;;;;;;5038337;28;20087;-47
2023/07/22 07:23:41;;;;;;;4.70;2.00;;;16.40;86.00;;;;;;5035057;28;20033;-49
2023/07/22 07:26:07;;;;;;;3.40;1.45;;;16.40;84.40;;;;;;5036451;28;20029;-50
2023/07/22 07:28:33;;;;;;;6.78;1.35;;;16.50;83.30;;;;;;5014907;28;20030;-48
2023/07/22 07:31:01;;;;;;;5.05;2.05;;;16.70;82.10;;;;;;5041642;28;20084;-48
2023/07/22 07:33:28;;;;;;;4.35;1.80;;;16.60;81.70;;;;;;5043567;28;20052;-50
2023/07/22 07:35:55;;;;;;;4.13;1.40;;;16.50;81.00;;;;;;5053342;28;20023;-48
2023/07/22 07:38:22;;;;;;;4.18;1.70;;;16.60;82.30;;;;;;5053400;28;20017;-53
2023/07/22 07:40:56;;;;;;;4.10;1.52;;;16.50;81.40;;;;;;5039663;28;20403;-50
2023/07/22 07:43:23;;;;;;;4.32;1.67;;;16.50;81.60;;;;;;5037424;28;20043;-51
2023/07/22 07:45:52;;;;;;;5.68;1.80;;;16.60;82.80;;;;;;5047617;28;20047;-50
2023/07/22 07:48:19;;;;;;;4.35;2.13;;;16.60;82.50;;;;;;5053139;28;20028;-50
2023/07/22 07:50:45;;;;;;;3.60;1.50;;;16.50;82.00;;;;;;5035634;28;20029;-51
2023/07/22 07:53:13;;;;;;;3.50;1.63;;;16.50;82.20;;;;;;5045026;28;20019;-48
2023/07/22 07:55:39;;;;;;;2.72;1.52;;;16.60;82.10;;;;;;5035901;28;20034;-48
2023/07/22 07:58:05;;;;;;;4.22;1.60;;;16.70;81.40;;;;;;5036608;28;20036;-51
2023/07/22 08:00:33;;;;;;;3.85;1.90;;;16.90;81.30;;;;;;5036632;28;20033;-51
2023/07/22 08:02:59;;;;;;;4.82;2.05;;;17.00;81.20;;;;;;5037926;28;20029;-49
2023/07/22 08:05:24;;;;;;;3.42;1.73;;;17.10;81.40;;;;;;5032861;28;20044;-52
2023/07/22 08:07:53;;;;;;;5.10;1.70;;;17.40;80.70;;;;;;5032993;28;20088;-49
2023/07/22 08:10:19;;;;;;;6.05;2.05;;;17.50;77.90;;;;;;5032002;28;20064;-48
2023/07/22 08:12:46;;;;;;;4.20;2.10;;;17.60;78.00;;;;;;5038191;28;20028;-48
2023/07/22 08:15:16;;;;;;;6.88;2.05;;;17.60;77.60;;;;;;5047360;28;20025;-49
2023/07/22 08:17:43;;;;;;;4.60;2.10;;;17.90;78.60;;;;;;5050753;28;20359;-48
2023/07/22 08:20:11;;;;;;;5.18;1.95;;;18.20;77.00;;;;;;5035122;28;20029;-51
2023/07/22 08:22:37;;;;;;;4.03;1.90;;;18.40;77.30;;;;;;5032748;28;20026;-51
2023/07/22 08:25:07;;;;;;;4.85;2.25;;;18.90;75.90;;;;;;5036586;28;20108;-48
2023/07/22 08:27:34;;;;;;;;;;;18.80;73.90;;;;;;5035333;28;20463;-50
2023/07/22 08:30:04;;;;;;;3.22;1.42;;;19.00;75.40;;;;;;5047882;28;19913;-48
2023/07/22 08:32:34;;;;;;;3.70;1.77;;;19.20;73.30;;;;;;5048217;28;20021;-49
2023/07/22 08:35:01;;;;;;;3.15;2.20;;;19.50;73.90;;;;;;5047614;28;20502;-48
2023/07/22 08:37:28;;;;;;;5.97;2.08;;;19.60;72.40;;;;;;5032203;28;20375;-52
2023/07/22 08:39:55;;;;;;;4.65;2.13;;;19.70;72.90;;;;;;5031354;28;20037;-48
2023/07/22 08:42:23;;;;;;;6.18;2.03;;;19.60;70.80;;;;;;5036391;28;20034;-50
2023/07/22 08:44:56;;;;;;;4.82;1.98;;;19.90;70.20;;;;;;5044374;28;20035;-50
2023/07/22 08:47:24;;;;;;;3.97;2.10;;;20.40;70.90;;;;;;5030996;28;20125;-47
2023/07/22 08:49:54;;;;;;;4.35;2.10;;;20.50;69.90;;;;;;5031384;28;20056;-48
2023/07/22 08:52:23;;;;;;;3.67;2.28;;;20.60;65.70;;;;;;5031968;28;20021;-48
2023/07/22 08:54:51;;;;;;;5.45;2.22;;;20.40;67.70;;;;;;5037851;28;20091;-48
2023/07/22 08:57:18;;;;;;;5.15;2.17;;;20.60;68.60;;;;;;5030782;28;20353;-48
2023/07/22 08:59:46;;;;;;;5.78;2.90;;;20.40;65.20;;;;;;5037299;28;20529;-48
2023/07/22 09:02:15;;;;;;;4.93;2.45;;;20.60;66.10;;;;;;5040894;28;20033;-48
2023/07/22 09:04:42;;;;;;;5.38;3.17;;;20.90;64.40;;;;;;5031847;28;20119;-52
2023/07/22 09:07:11;;;;;;;4.80;3.38;;;20.70;66.90;;;;;;5031785;28;20056;-50
2023/07/22 09:09:38;;;;;;;6.65;3.45;;;21.30;65.90;;;;;;5043033;28;20037;-49
2023/07/22 09:12:06;;;;;;;6.82;3.63;;;21.70;66.10;;;;;;5032651;28;20052;-47
2023/07/22 09:14:34;;;;;;;5.15;3.45;;;21.90;62.60;;;;;;5048065;28;20021;-50
2023/07/22 09:17:01;;;;;;;5.68;4.25;;;22.10;63.50;;;;;;5041996;28;20474;-54
2023/07/22 09:19:32;;;;;;;6.93;5.18;;;22.30;62.30;;;;;;5051197;28;20051;-48
2023/07/22 09:21:58;;;;;;;7.13;5.00;;;22.60;62.60;;;;;;5033450;28;20040;-48
2023/07/22 09:24:25;;;;;;;6.25;5.15;;;22.80;60.30;;;;;;5033720;28;20033;-48
2023/07/22 09:26:52;;;;;;;8.63;5.53;;;22.60;59.40;;;;;;5033742;28;20029;-48
2023/07/22 09:29:36;;;;;;;6.22;4.57;;;21.80;60.20;;;;;;5041184;28;20519;-49
2023/07/22 09:32:03;;;;;;;8.55;5.60;;;21.70;62.30;;;;;;5044664;28;20458;-47
2023/07/22 09:34:30;;;;;;;8.57;5.70;;;21.20;62.20;;;;;;5041885;28;20554;-49
2023/07/22 09:37:00;;;;;;;5.93;5.00;;;20.60;63.40;;;;;;5046082;28;20029;-48
2023/07/22 09:39:26;;;;;;;;;;;20.50;64.40;;;;;;5035591;28;20025;-50
2023/07/22 09:41:52;;;;;;;6.75;6.03;;;20.50;66.10;;;;;;5031325;28;20338;-50
2023/07/22 09:44:19;;;;;;;7.20;5.50;;;20.60;66.80;;;;;;5035518;28;20519;-54
2023/07/22 09:46:49;;;;;;;9.00;5.43;;;20.50;65.40;;;;;;5044569;28;20065;-49
2023/07/22 09:49:17;;;;;;;9.13;6.65;;;20.40;65.30;;;;;;5036717;28;20029;-53
2023/07/22 09:51:47;;;;;;;6.85;5.25;;;20.00;65.70;;;;;;5030651;28;20025;-52
2023/07/22 09:54:13;;;;;;;6.55;5.07;;;19.80;66.40;;;;;;5042360;28;20025;-48
2023/07/22 09:56:49;;;;;;;6.28;5.35;;;19.50;66.60;;;;;;5031656;28;20417;-51
2023/07/22 09:59:18;;;;;;;7.80;5.95;;;19.10;68.80;;;;;;5030568;28;20080;-51
2023/07/22 10:01:48;;;;;;;9.13;6.50;;;19.00;69.90;;;;;;5043256;28;20374;-49
2023/07/22 10:04:16;;;;;;;7.80;5.28;;;18.90;69.00;;;;;;5034749;28;20072;-49
2023/07/22 10:06:44;;;;;;;6.95;5.28;;;18.90;68.70;;;;;;5048545;28;20044;-48
2023/07/22 10:09:15;;;;;;;7.65;6.45;;;19.20;70.70;;;;;;5044763;28;20461;-47
2023/07/22 10:11:44;;;;;;;6.57;5.60;;;19.40;69.90;;;;;;5046501;28;20047;-49
2023/07/22 10:14:13;;;;;;;7.85;6.15;;;19.50;69.30;;;;;;5037480;28;20586;-50
2023/07/22 10:16:41;;;;;;;9.00;6.32;;;19.50;70.00;;;;;;5034586;28;20025;-49
2023/07/22 10:19:09;;;;;;;8.50;5.47;;;19.40;68.80;;;;;;5036275;28;20017;-49
2023/07/22 10:21:38;;;;;;;6.28;5.53;;;19.20;69.70;;;;;;5049578;28;20029;-48
2023/07/22 10:24:04;;;;;;;7.82;5.88;;;18.90;70.70;;;;;;5037589;28;20045;-50
2023/07/22 10:26:34;;;;;;;10.10;5.97;;;18.70;72.70;;;;;;5038300;28;20041;-48
2023/07/22 10:29:01;;;;;;;10.13;6.65;;;18.50;73.70;;;;;;5039666;28;20055;-44
2023/07/22 10:31:31;;;;;;;8.10;6.25;;;18.30;75.80;;;;;;5044152;28;20032;-45
2023/07/22 10:33:58;;;;;;;8.15;6.50;;;18.00;77.20;;;;;;5032341;28;20029;-44
2023/07/22 10:36:31;;;;;;;7.57;6.05;;;17.90;78.10;;;;;;5052150;28;20473;-45
2023/07/22 10:38:59;;;;;;;7.20;6.05;;;17.80;79.00;;;;;;5051223;28;20036;-45
2023/07/22 10:41:26;;;;;;;8.73;6.22;;;17.70;80.30;;;;;;5046832;28;20043;-47
2023/07/22 10:44:01;;;;;;;7.68;5.93;;;17.70;80.80;;;;;;5045792;28;20378;-45
2023/07/22 10:46:56;;;;;;;8.63;7.28;;;17.80;81.40;;;;;;5034751;28;20032;-45
2023/07/22 10:49:24;;;;;;;10.15;7.20;;;17.90;82.10;;;;;;5042423;28;20033;-45
2023/07/22 10:51:52;;;;;;;7.47;6.65;;;18.20;82.40;;;;;;5038370;28;20025;-45
2023/07/22 10:54:36;;;;;;;12.80;8.60;;;18.40;82.30;;;;;;5048176;28;20037;-45
2023/07/22 10:57:23;;;;;;;11.32;7.72;;;18.30;81.30;;;;;;5045766;28;20025;-47
2023/07/22 10:59:51;;;;;;;9.73;7.85;;;18.20;81.70;;;;;;5053775;28;20021;-48
2023/07/22 11:02:29;;;;;;;8.70;7.28;;;17.90;82.00;;;;;;5039837;28;20521;-49
2023/07/22 11:05:01;;;;;;;11.93;9.05;;;17.80;82.60;;;;;;5041437;28;20022;-49
2023/07/22 11:07:33;;;;;;;11.27;8.95;;;17.70;82.90;;;;;;5040251;28;20036;-48
2023/07/22 11:10:18;;;;;;;10.48;8.02;;;17.40;83.70;;;;;;5049195;28;20080;-52
2023/07/22 11:12:45;;;;;;;12.82;9.07;;;17.30;84.40;;;;;;5044261;28;20663;-53
2023/07/22 11:15:18;;;;;;;12.68;10.07;;;17.00;85.00;;;;;;5032561;28;20037;-54
2023/07/22 11:17:48;;;;;;;10.88;8.95;;;16.90;86.20;;;;;;5041291;28;20029;-48
2023/07/22 11:20:15;;;;;;;11.68;6.53;;;16.80;86.80;;;;;;5039420;28;20033;-49
2023/07/22 11:22:43;;;;;;;9.88;7.03;;;16.70;87.10;;;;;;5038698;28;20038;-47
2023/07/22 11:25:19;;;;;;;8.90;7.10;;;16.70;87.10;;;;;;5040556;28;20459;-47
2023/07/22 11:27:46;;;;;;;9.20;6.97;;;16.60;86.90;;;;;;5044306;28;20036;-46
2023/07/22 11:30:15;;;;;;;9.80;7.57;;;16.60;87.20;;;;;;5040205;28;20033;-46
2023/07/22 11:32:43;;;;;;;10.32;7.20;;;16.70;87.50;;;;;;5038641;28;20029;-46
2023/07/22 11:35:10;;;;;;;11.98;8.30;;;16.70;87.40;;;;;;5041435;28;20469;-46
2023/07/22 11:37:37;;;;;;;10.88;8.18;;;16.80;87.70;;;;;;5038650;28;20095;-47
2023/07/22 11:40:03;;;;;;;12.32;9.32;;;16.70;87.90;;;;;;5034497;28;20029;-49
2023/07/22 11:42:34;;;;;;;10.60;8.70;;;16.80;88.20;;;;;;5032126;28;20447;-53
2023/07/22 11:45:01;;;;;;;11.27;8.50;;;16.90;87.90;;;;;;5033023;28;20120;-53
2023/07/22 11:47:32;;;;;;;10.45;7.97;;;16.80;87.90;;;;;;5038565;28;20430;-50
2023/07/22 11:50:01;;;;;;;13.50;9.68;;;16.70;88.10;;;;;;5040009;28;20459;-52
2023/07/22 11:52:27;;;;;;;13.23;10.00;;;16.80;88.40;;;;;;5045264;28;20499;-52
2023/07/22 11:55:03;;;;;;;12.10;10.27;;;16.60;88.50;;;;;;5039739;28;20033;-49
2023/07/22 11:57:30;;;;;;;12.23;9.93;;;16.60;88.70;;;;;;5042318;28;20034;-48
2023/07/22 11:59:57;;;;;;;12.05;9.13;;;16.60;88.80;;;;;;5033026;28;20493;-55
2023/07/22 12:02:24;;;;;;;14.63;9.57;;;16.60;89.00;;;;;;5038831;28;20075;-51
2023/07/22 12:05:06;;;;;;;12.60;8.77;;;16.60;89.00;;;;;;5027333;28;20371;-52
2023/07/22 12:07:35;;;;;;;9.20;7.55;;;16.70;89.00;;;;;;5039758;28;20037;-47
2023/07/22 12:10:05;;;;;;;11.68;8.38;;;16.70;89.30;;;;;;5041057;28;20050;-46
2023/07/22 12:12:38;;;;;;;10.23;9.13;;;16.90;89.50;;;;;;5038893;28;20043;-50
2023/07/22 12:15:15;;;;;;;12.13;7.82;;;17.00;89.50;;;;;;5041442;28;20503;-49
2023/07/22 12:17:52;;;;;;;10.32;7.90;;;17.00;88.80;;;;;;5036573;28;20029;-49
2023/07/22 12:20:23;;;;;;;7.68;6.20;;;17.00;88.20;;;;;;5037317;28;20096;-52
2023/07/22 12:22:48;;;;;;;7.38;5.40;;;16.90;88.10;;;;;;5034419;28;20463;-55
2023/07/22 12:25:15;;;;;;;9.00;5.85;;;16.80;87.30;;;;;;5039771;28;20039;-52
2023/07/22 12:27:45;;;;;;;7.40;4.88;;;16.60;86.50;;;;;;5038445;28;20188;-52
2023/07/22 12:30:12;;;;;;;7.75;6.00;;;16.60;87.20;;;;;;5038242;28;20124;-50
2023/07/22 12:32:39;;;;;;;6.32;4.95;;;16.70;87.70;;;;;;5041592;28;20025;-49
2023/07/22 12:35:07;;;;;;;6.03;4.88;;;16.80;87.90;;;;;;5040537;28;20406;-48
2023/07/22 12:37:39;;;;;;;8.23;5.13;;;16.90;87.70;;;;;;5038477;28;20534;-47
2023/07/22 12:40:08;;;;;;;6.97;4.68;;;17.10;88.60;;;;;;5039686;28;20041;-47
2023/07/22 12:42:36;;;;;;;7.80;5.78;;;17.20;87.50;;;;;;5039546;28;20095;-48
2023/07/22 12:45:04;;;;;;;6.53;4.88;;;17.20;87.50;;;;;;5037904;28;20577;-47
2023/07/22 12:47:31;;;;;;;6.53;4.72;;;17.40;87.30;;;;;;5039888;28;20064;-50
2023/07/22 12:49:57;;;;;;;7.72;5.07;;;17.40;87.30;;;;;;5045496;28;20060;-51